sensor_id;sensor_type;location;lat;lon;timestamp;pressure;altitude;pressure_sealevel;temperature
69415;BMP280;56608;43.530;-5.652;2023-02-01T00:00:45;103085.09;;;8.07
69415;BMP280;56608;43.530;-5.652;2023-02-01T00:01:47;103080.28;;;8.16
69415;BMP280;56608;43.530;-5.652;2023-02-01T00:02:48;103067.25;;;8.14
69415;BMP280;56608;43.530;-5.652;2023-02-01T00:03:50;103078.47;;;8.20
69415;BMP280;56608;43.530;-5.652;2023-02-01T00:04:51;103078.38;;;8.16
69415;BMP280;56608;43.530;-5.652;2023-02-01T00:05:57;103071.97;;;8.21
69415;BMP280;56608;43.530;-5.652;2023-02-01T00:06:58;103078.56;;;8.27
69415;BMP280;56608;43.530;-5.652;2023-02-01T00:07:59;103071.66;;;8.26
69415;BMP280;56608;43.530;-5.652;2023-02-01T00:09:01;103077.94;;;8.34
69415;BMP280;56608;43.530;-5.652;2023-02-01T00:10:02;103080.41;;;8.42
69415;BMP280;56608;43.530;-5.652;2023-02-01T00:11:07;103080.09;;;8.47
69415;BMP280;56608;43.530;-5.652;2023-02-01T00:12:08;103077.47;;;8.51
69415;BMP280;56608;43.530;-5.652;2023-02-01T00:13:10;103072.88;;;8.51
69415;BMP280;56608;43.530;-5.652;2023-02-01T00:14:11;103071.28;;;8.47
69415;BMP280;56608;43.530;-5.652;2023-02-01T00:15:13;103074.25;;;8.42
69415;BMP280;56608;43.530;-5.652;2023-02-01T00:17:17;103067.81;;;8.46
69415;BMP280;56608;43.530;-5.652;2023-02-01T00:18:18;103068.91;;;8.42
69415;BMP280;56608;43.530;-5.652;2023-02-01T00:19:20;103067.59;;;8.32
69415;BMP280;56608;43.530;-5.652;2023-02-01T00:20:21;103059.72;;;8.20
69415;BMP280;56608;43.530;-5.652;2023-02-01T00:21:22;103064.22;;;8.16
69415;BMP280;56608;43.530;-5.652;2023-02-01T00:22:23;103063.78;;;8.14
69415;BMP280;56608;43.530;-5.652;2023-02-01T00:23:25;103066.19;;;8.19
69415;BMP280;56608;43.530;-5.652;2023-02-01T00:24:26;103062.84;;;8.26
69415;BMP280;56608;43.530;-5.652;2023-02-01T00:25:28;103065.59;;;8.29
69415;BMP280;56608;43.530;-5.652;2023-02-01T00:26:36;103066.03;;;8.31
69415;BMP280;56608;43.530;-5.652;2023-02-01T00:27:38;103061.00;;;8.30
69415;BMP280;56608;43.530;-5.652;2023-02-01T00:28:39;103062.84;;;8.26
69415;BMP280;56608;43.530;-5.652;2023-02-01T00:29:40;103052.06;;;8.22
69415;BMP280;56608;43.530;-5.652;2023-02-01T00:30:42;103062.06;;;8.25
69415;BMP280;56608;43.530;-5.652;2023-02-01T00:31:44;103054.88;;;8.29
69415;BMP280;56608;43.530;-5.652;2023-02-01T00:32:45;103050.13;;;8.19
69415;BMP280;56608;43.530;-5.652;2023-02-01T00:33:48;103049.38;;;8.22
69415;BMP280;56608;43.530;-5.652;2023-02-01T00:34:49;103060.09;;;8.22
69415;BMP280;56608;43.530;-5.652;2023-02-01T00:35:51;103048.50;;;8.14
69415;BMP280;56608;43.530;-5.652;2023-02-01T00:36:56;103048.56;;;8.18
69415;BMP280;56608;43.530;-5.652;2023-02-01T00:37:58;103055.47;;;8.19
69415;BMP280;56608;43.530;-5.652;2023-02-01T00:39:00;103049.47;;;8.26
69415;BMP280;56608;43.530;-5.652;2023-02-01T00:40:02;103056.44;;;8.30
69415;BMP280;56608;43.530;-5.652;2023-02-01T00:41:05;103056.16;;;8.35
69415;BMP280;56608;43.530;-5.652;2023-02-01T00:42:07;103058.06;;;8.35
69415;BMP280;56608;43.530;-5.652;2023-02-01T00:43:08;103045.94;;;8.41
69415;BMP280;56608;43.530;-5.652;2023-02-01T00:44:10;103049.78;;;8.43
69415;BMP280;56608;43.530;-5.652;2023-02-01T00:45:11;103040.50;;;8.37
69415;BMP280;56608;43.530;-5.652;2023-02-01T00:46:14;103055.50;;;8.42
69415;BMP280;56608;43.530;-5.652;2023-02-01T00:47:16;103057.03;;;8.43
69415;BMP280;56608;43.530;-5.652;2023-02-01T00:48:17;103048.59;;;8.41
69415;BMP280;56608;43.530;-5.652;2023-02-01T00:49:18;103049.31;;;8.38
69415;BMP280;56608;43.530;-5.652;2023-02-01T00:50:19;103048.13;;;8.35
69415;BMP280;56608;43.530;-5.652;2023-02-01T00:51:24;103046.28;;;8.39
69415;BMP280;56608;43.530;-5.652;2023-02-01T00:52:26;103048.84;;;8.32
69415;BMP280;56608;43.530;-5.652;2023-02-01T00:53:28;103047.28;;;8.31
69415;BMP280;56608;43.530;-5.652;2023-02-01T00:54:29;103045.72;;;8.30
69415;BMP280;56608;43.530;-5.652;2023-02-01T00:55:31;103049.66;;;8.36
69415;BMP280;56608;43.530;-5.652;2023-02-01T00:56:32;103040.06;;;8.35
69415;BMP280;56608;43.530;-5.652;2023-02-01T00:57:33;103045.25;;;8.47
69415;BMP280;56608;43.530;-5.652;2023-02-01T00:58:35;103043.00;;;8.49
69415;BMP280;56608;43.530;-5.652;2023-02-01T00:59:36;103040.78;;;8.55
69415;BMP280;56608;43.530;-5.652;2023-02-01T01:00:37;103050.72;;;8.54
69415;BMP280;56608;43.530;-5.652;2023-02-01T01:01:39;103045.00;;;8.56
69415;BMP280;56608;43.530;-5.652;2023-02-01T01:02:41;103036.94;;;8.52
69415;BMP280;56608;43.530;-5.652;2023-02-01T01:03:51;103040.72;;;8.51
69415;BMP280;56608;43.530;-5.652;2023-02-01T01:04:53;103034.09;;;8.42
69415;BMP280;56608;43.530;-5.652;2023-02-01T01:05:57;103032.03;;;8.35
69415;BMP280;56608;43.530;-5.652;2023-02-01T01:06:58;103025.78;;;8.28
69415;BMP280;56608;43.530;-5.652;2023-02-01T01:08:00;103026.63;;;8.32
69415;BMP280;56608;43.530;-5.652;2023-02-01T01:09:04;103034.16;;;8.26
69415;BMP280;56608;43.530;-5.652;2023-02-01T01:10:05;103035.00;;;8.30
69415;BMP280;56608;43.530;-5.652;2023-02-01T01:12:08;103025.28;;;8.22
69415;BMP280;56608;43.530;-5.652;2023-02-01T01:13:10;103034.16;;;8.26
69415;BMP280;56608;43.530;-5.652;2023-02-01T01:14:12;103025.78;;;8.28
69415;BMP280;56608;43.530;-5.652;2023-02-01T01:15:13;103031.06;;;8.24
69415;BMP280;56608;43.530;-5.652;2023-02-01T01:16:15;103026.56;;;8.28
69415;BMP280;56608;43.530;-5.652;2023-02-01T01:17:17;103031.91;;;8.28
69415;BMP280;56608;43.530;-5.652;2023-02-01T01:18:18;103036.56;;;8.31
69415;BMP280;56608;43.530;-5.652;2023-02-01T01:19:20;103032.78;;;8.32
69415;BMP280;56608;43.530;-5.652;2023-02-01T01:20:21;103030.50;;;8.34
69415;BMP280;56608;43.530;-5.652;2023-02-01T01:21:23;103024.28;;;8.30
69415;BMP280;56608;43.530;-5.652;2023-02-01T01:22:23;103028.94;;;8.33
69415;BMP280;56608;43.530;-5.652;2023-02-01T01:23:25;103035.38;;;8.29
69415;BMP280;56608;43.530;-5.652;2023-02-01T01:24:27;103025.84;;;8.31
69415;BMP280;56608;43.530;-5.652;2023-02-01T01:25:29;103025.97;;;8.38
69415;BMP280;56608;43.530;-5.652;2023-02-01T01:26:30;103028.34;;;8.43
69415;BMP280;56608;43.530;-5.652;2023-02-01T01:27:32;103030.91;;;8.36
69415;BMP280;56608;43.530;-5.652;2023-02-01T01:28:33;103030.13;;;8.36
69415;BMP280;56608;43.530;-5.652;2023-02-01T01:29:34;103029.66;;;8.30
69415;BMP280;56608;43.530;-5.652;2023-02-01T01:30:36;103032.34;;;8.30
69415;BMP280;56608;43.530;-5.652;2023-02-01T01:31:37;103026.56;;;8.28
69415;BMP280;56608;43.530;-5.652;2023-02-01T01:32:39;103027.31;;;8.29
69415;BMP280;56608;43.530;-5.652;2023-02-01T01:33:40;103033.59;;;8.36
69415;BMP280;56608;43.530;-5.652;2023-02-01T01:34:42;103028.66;;;8.38
69415;BMP280;56608;43.530;-5.652;2023-02-01T01:35:43;103032.88;;;8.39
69415;BMP280;56608;43.530;-5.652;2023-02-01T01:36:45;103030.63;;;8.41
69415;BMP280;56608;43.530;-5.652;2023-02-01T01:37:45;103030.22;;;8.39
69415;BMP280;56608;43.530;-5.652;2023-02-01T01:38:47;103029.78;;;8.37
69415;BMP280;56608;43.530;-5.652;2023-02-01T01:39:48;103028.72;;;8.42
69415;BMP280;56608;43.530;-5.652;2023-02-01T01:40:48;103021.69;;;8.34
69415;BMP280;56608;43.530;-5.652;2023-02-01T01:41:53;103029.06;;;8.40
69415;BMP280;56608;43.530;-5.652;2023-02-01T01:42:54;103035.31;;;8.48
69415;BMP280;56608;43.530;-5.652;2023-02-01T01:45:06;103033.84;;;8.54
69415;BMP280;56608;43.530;-5.652;2023-02-01T01:46:08;103026.84;;;8.46
69415;BMP280;56608;43.530;-5.652;2023-02-01T01:47:09;103026.91;;;8.49
69415;BMP280;56608;43.530;-5.652;2023-02-01T01:48:27;103025.97;;;8.38
69415;BMP280;56608;43.530;-5.652;2023-02-01T01:49:30;103038.81;;;8.29
69415;BMP280;56608;43.530;-5.652;2023-02-01T01:50:35;103030.97;;;8.17
69415;BMP280;56608;43.530;-5.652;2023-02-01T01:51:51;103033.22;;;8.15
69415;BMP280;56608;43.530;-5.652;2023-02-01T01:52:55;103037.91;;;8.21
69415;BMP280;56608;43.530;-5.652;2023-02-01T01:55:10;103028.16;;;8.33
69415;BMP280;56608;43.530;-5.652;2023-02-01T01:56:12;103024.66;;;8.29
69415;BMP280;56608;43.530;-5.652;2023-02-01T01:57:23;103026.56;;;8.28
69415;BMP280;56608;43.530;-5.652;2023-02-01T01:58:29;103039.06;;;8.20
69415;BMP280;56608;43.530;-5.652;2023-02-01T01:59:35;103033.37;;;8.26
69415;BMP280;56608;43.530;-5.652;2023-02-01T02:00:38;103040.91;;;8.39
69415;BMP280;56608;43.530;-5.652;2023-02-01T02:01:40;103033.69;;;8.43
69415;BMP280;56608;43.530;-5.652;2023-02-01T02:02:43;103035.22;;;8.41
69415;BMP280;56608;43.530;-5.652;2023-02-01T02:03:45;103026.19;;;8.30
69415;BMP280;56608;43.530;-5.652;2023-02-01T02:04:47;103028.16;;;8.33
69415;BMP280;56608;43.530;-5.652;2023-02-01T02:05:50;103036.28;;;8.36
69415;BMP280;56608;43.530;-5.652;2023-02-01T02:06:59;103030.09;;;8.32
69415;BMP280;56608;43.530;-5.652;2023-02-01T02:08:02;103036.78;;;8.22
69415;BMP280;56608;43.530;-5.652;2023-02-01T02:09:04;103032.63;;;8.25
69415;BMP280;56608;43.530;-5.652;2023-02-01T02:10:05;103041.78;;;8.24
69415;BMP280;56608;43.530;-5.652;2023-02-01T02:11:07;103031.81;;;8.21
69415;BMP280;56608;43.530;-5.652;2023-02-01T02:12:10;103043.25;;;8.21
69415;BMP280;56608;43.530;-5.652;2023-02-01T02:13:11;103028.62;;;8.15
69415;BMP280;56608;43.530;-5.652;2023-02-01T02:14:16;103038.50;;;8.11
69415;BMP280;56608;43.530;-5.652;2023-02-01T02:15:18;103033.63;;;8.17
69415;BMP280;56608;43.530;-5.652;2023-02-01T02:17:36;103045.19;;;8.21
69415;BMP280;56608;43.530;-5.652;2023-02-01T02:20:46;103032.19;;;8.23
69415;BMP280;56608;43.530;-5.652;2023-02-01T02:26:04;103039.53;;;8.26
69415;BMP280;56608;43.530;-5.652;2023-02-01T02:30:37;103040.22;;;8.23
69415;BMP280;56608;43.530;-5.652;2023-02-01T02:37:31;103028.75;;;8.22
69415;BMP280;56608;43.530;-5.652;2023-02-01T02:39:01;103023.00;;;8.20
69415;BMP280;56608;43.530;-5.652;2023-02-01T02:43:37;103031.41;;;8.22
69415;BMP280;56608;43.530;-5.652;2023-02-01T02:46:27;103037.78;;;8.14
69415;BMP280;56608;43.530;-5.652;2023-02-01T02:47:57;103032.41;;;8.11
69415;BMP280;56608;43.530;-5.652;2023-02-01T02:49:11;103032.16;;;8.19
69415;BMP280;56608;43.530;-5.652;2023-02-01T02:50:26;103024.50;;;8.21
69415;BMP280;56608;43.530;-5.652;2023-02-01T02:52:16;103024.81;;;8.16
69415;BMP280;56608;43.530;-5.652;2023-02-01T02:53:53;103036.31;;;8.17
69415;BMP280;56608;43.530;-5.652;2023-02-01T02:55:16;103025.09;;;8.11
69415;BMP280;56608;43.530;-5.652;2023-02-01T02:56:20;103020.59;;;8.15
69415;BMP280;56608;43.530;-5.652;2023-02-01T02:57:42;103021.72;;;8.14
69415;BMP280;56608;43.530;-5.652;2023-02-01T02:59:04;103026.97;;;8.07
69415;BMP280;56608;43.530;-5.652;2023-02-01T03:00:32;103013.59;;;8.07
69415;BMP280;56608;43.530;-5.652;2023-02-01T03:01:53;103023.78;;;8.02
69415;BMP280;56608;43.530;-5.652;2023-02-01T03:03:13;103012.34;;;8.05
69415;BMP280;56608;43.530;-5.652;2023-02-01T03:04:33;103005.56;;;8.07
69415;BMP280;56608;43.530;-5.652;2023-02-01T03:05:36;103011.34;;;8.09
69415;BMP280;56608;43.530;-5.652;2023-02-01T03:06:38;103018.59;;;8.09
69415;BMP280;56608;43.530;-5.652;2023-02-01T03:08:01;103016.59;;;8.06
69415;BMP280;56608;43.530;-5.652;2023-02-01T03:09:08;103008.66;;;8.09
69415;BMP280;56608;43.530;-5.652;2023-02-01T03:11:21;103009.34;;;8.06
69415;BMP280;56608;43.530;-5.652;2023-02-01T03:12:22;103011.22;;;8.06
69415;BMP280;56608;43.530;-5.652;2023-02-01T03:13:53;103010.56;;;8.09
69415;BMP280;56608;43.530;-5.652;2023-02-01T03:15:03;103010.91;;;8.07
69415;BMP280;56608;43.530;-5.652;2023-02-01T03:17:22;103004.00;;;8.06
69415;BMP280;56608;43.530;-5.652;2023-02-01T03:19:42;103010.97;;;8.11
69415;BMP280;56608;43.530;-5.652;2023-02-01T03:20:50;103007.62;;;8.17
69415;BMP280;56608;43.530;-5.652;2023-02-01T03:21:57;103004.12;;;8.13
69415;BMP280;56608;43.530;-5.652;2023-02-01T03:22:59;103006.84;;;8.17
69415;BMP280;56608;43.530;-5.652;2023-02-01T03:24:01;103011.38;;;8.13
69415;BMP280;56608;43.530;-5.652;2023-02-01T03:25:16;103007.28;;;8.19
69415;BMP280;56608;43.530;-5.652;2023-02-01T03:26:20;103008.50;;;8.25
69415;BMP280;56608;43.530;-5.652;2023-02-01T03:27:35;103011.19;;;8.25
69415;BMP280;56608;43.530;-5.652;2023-02-01T03:28:43;103008.75;;;8.16
69415;BMP280;56608;43.530;-5.652;2023-02-01T03:31:23;103001.91;;;8.19
69415;BMP280;56608;43.530;-5.652;2023-02-01T03:32:25;103004.19;;;8.17
69415;BMP280;56608;43.530;-5.652;2023-02-01T03:33:27;103000.38;;;8.18
69415;BMP280;56608;43.530;-5.652;2023-02-01T03:34:31;102998.75;;;8.13
69415;BMP280;56608;43.530;-5.652;2023-02-01T03:35:52;102989.56;;;8.11
69415;BMP280;56608;43.530;-5.652;2023-02-01T03:37:00;102994.91;;;8.11
69415;BMP280;56608;43.530;-5.652;2023-02-01T03:39:46;103010.13;;;8.07
69415;BMP280;56608;43.530;-5.652;2023-02-01T03:40:58;102988.97;;;8.02
69415;BMP280;56608;43.530;-5.652;2023-02-01T03:42:05;102995.63;;;8.08
69415;BMP280;56608;43.530;-5.652;2023-02-01T03:43:13;103011.69;;;8.08
69415;BMP280;56608;43.530;-5.652;2023-02-01T03:44:19;103005.19;;;8.09
69415;BMP280;56608;43.530;-5.652;2023-02-01T03:45:27;103006.22;;;8.04
69415;BMP280;56608;43.530;-5.652;2023-02-01T03:47:21;103000.09;;;8.04
69415;BMP280;56608;43.530;-5.652;2023-02-01T03:48:05;102996.22;;;8.01
69415;BMP280;56608;43.530;-5.652;2023-02-01T03:49:09;103000.81;;;8.01
69415;BMP280;56608;43.530;-5.652;2023-02-01T03:50:22;103003.13;;;8.02
69415;BMP280;56608;43.530;-5.652;2023-02-01T03:51:26;102996.88;;;7.95
69415;BMP280;56608;43.530;-5.652;2023-02-01T03:52:36;102999.91;;;7.93
69415;BMP280;56608;43.530;-5.652;2023-02-01T03:53:40;102995.41;;;7.97
69415;BMP280;56608;43.530;-5.652;2023-02-01T03:54:42;102996.22;;;8.01
69415;BMP280;56608;43.530;-5.652;2023-02-01T03:55:45;102989.28;;;7.97
69415;BMP280;56608;43.530;-5.652;2023-02-01T03:56:47;102991.72;;;8.05
69415;BMP280;56608;43.530;-5.652;2023-02-01T03:58:12;102987.84;;;8.03
69415;BMP280;56608;43.530;-5.652;2023-02-01T03:59:15;102988.59;;;8.00
69415;BMP280;56608;43.530;-5.652;2023-02-01T04:00:20;102991.25;;;8.00
69415;BMP280;56608;43.530;-5.652;2023-02-01T04:01:23;102989.81;;;8.06
69415;BMP280;56608;43.530;-5.652;2023-02-01T04:02:23;102987.13;;;8.06
69415;BMP280;56608;43.530;-5.652;2023-02-01T04:03:26;102989.81;;;8.06
69415;BMP280;56608;43.530;-5.652;2023-02-01T04:04:28;102984.03;;;8.04
69415;BMP280;56608;43.530;-5.652;2023-02-01T04:05:29;102991.59;;;7.98
69415;BMP280;56608;43.530;-5.652;2023-02-01T04:06:31;102982.44;;;7.99
69415;BMP280;56608;43.530;-5.652;2023-02-01T04:07:32;102998.50;;;7.99
69415;BMP280;56608;43.530;-5.652;2023-02-01T04:08:34;102997.31;;;7.97
69415;BMP280;56608;43.530;-5.652;2023-02-01T04:09:35;102983.22;;;8.00
69415;BMP280;56608;43.530;-5.652;2023-02-01T04:10:36;102983.56;;;7.98
69415;BMP280;56608;43.530;-5.652;2023-02-01T04:11:37;102992.06;;;8.04
69415;BMP280;56608;43.530;-5.652;2023-02-01T04:12:39;102988.25;;;8.05
69415;BMP280;56608;43.530;-5.652;2023-02-01T04:13:41;102983.44;;;8.10
69415;BMP280;56608;43.530;-5.652;2023-02-01T04:14:42;102984.91;;;8.08
69415;BMP280;56608;43.530;-5.652;2023-02-01T04:15:44;102992.97;;;8.11
69415;BMP280;56608;43.530;-5.652;2023-02-01T04:16:46;102984.03;;;8.04
69415;BMP280;56608;43.530;-5.652;2023-02-01T04:17:48;102988.72;;;8.07
69415;BMP280;56608;43.530;-5.652;2023-02-01T04:18:49;102984.03;;;8.04
69415;BMP280;56608;43.530;-5.652;2023-02-01T04:19:50;102976.88;;;8.08
69415;BMP280;56608;43.530;-5.652;2023-02-01T04:20:52;102983.34;;;8.07
69415;BMP280;56608;43.530;-5.652;2023-02-01T04:21:53;102984.12;;;8.07
69415;BMP280;56608;43.530;-5.652;2023-02-01T04:22:54;102986.88;;;8.11
69415;BMP280;56608;43.530;-5.652;2023-02-01T04:23:56;102985.44;;;8.17
69415;BMP280;56608;43.530;-5.652;2023-02-01T04:24:57;102979.66;;;8.15
69415;BMP280;56608;43.530;-5.652;2023-02-01T04:26:00;102981.28;;;8.19
69415;BMP280;56608;43.530;-5.652;2023-02-01T04:27:02;102978.94;;;8.18
69415;BMP280;56608;43.530;-5.652;2023-02-01T04:28:04;102980.44;;;8.15
69415;BMP280;56608;43.530;-5.652;2023-02-01T04:29:05;102972.03;;;8.17
69415;BMP280;56608;43.530;-5.652;2023-02-01T04:30:07;102978.53;;;8.16
69415;BMP280;56608;43.530;-5.652;2023-02-01T04:31:12;102979.66;;;8.15
69415;BMP280;56608;43.530;-5.652;2023-02-01T04:32:13;102975.06;;;8.15
69415;BMP280;56608;43.530;-5.652;2023-02-01T04:33:16;102970.81;;;8.11
69415;BMP280;56608;43.530;-5.652;2023-02-01T04:34:18;102981.22;;;8.16
69415;BMP280;56608;43.530;-5.652;2023-02-01T04:35:19;102971.97;;;8.13
69415;BMP280;56608;43.530;-5.652;2023-02-01T04:36:21;102973.50;;;8.11
69415;BMP280;56608;43.530;-5.652;2023-02-01T04:37:23;102971.06;;;8.06
69415;BMP280;56608;43.530;-5.652;2023-02-01T04:38:24;102975.06;;;8.15
69415;BMP280;56608;43.530;-5.652;2023-02-01T04:39:26;102971.28;;;8.16
69415;BMP280;56608;43.530;-5.652;2023-02-01T04:40:26;102975.00;;;8.12
69415;BMP280;56608;43.530;-5.652;2023-02-01T04:41:28;102966.94;;;8.08
69415;BMP280;56608;43.530;-5.652;2023-02-01T04:42:31;102970.41;;;8.09
69415;BMP280;56608;43.530;-5.652;2023-02-01T04:43:31;102952.09;;;7.92
69415;BMP280;56608;43.530;-5.652;2023-02-01T04:44:33;102970.13;;;7.95
69415;BMP280;56608;43.530;-5.652;2023-02-01T04:45:34;102969.41;;;7.98
69415;BMP280;56608;43.530;-5.652;2023-02-01T04:46:36;102973.22;;;7.97
69415;BMP280;56608;43.530;-5.652;2023-02-01T04:47:36;102973.94;;;7.94
69415;BMP280;56608;43.530;-5.652;2023-02-01T04:48:38;102966.97;;;7.89
69415;BMP280;56608;43.530;-5.652;2023-02-01T04:49:40;102975.06;;;7.93
69415;BMP280;56608;43.530;-5.652;2023-02-01T04:50:41;102971.75;;;7.99
69415;BMP280;56608;43.530;-5.652;2023-02-01T04:51:43;102968.22;;;7.95
69415;BMP280;56608;43.530;-5.652;2023-02-01T04:52:43;102962.94;;;7.99
69415;BMP280;56608;43.530;-5.652;2023-02-01T04:53:46;102965.59;;;7.99
69415;BMP280;56608;43.530;-5.652;2023-02-01T04:54:47;102973.22;;;7.97
69415;BMP280;56608;43.530;-5.652;2023-02-01T04:55:48;102964.78;;;7.95
69415;BMP280;56608;43.530;-5.652;2023-02-01T04:56:51;102969.34;;;7.94
69415;BMP280;56608;43.530;-5.652;2023-02-01T04:57:52;102965.53;;;7.95
69415;BMP280;56608;43.530;-5.652;2023-02-01T04:58:53;102959.41;;;7.95
69415;BMP280;56608;43.530;-5.652;2023-02-01T04:59:56;102983.09;;;7.93
69415;BMP280;56608;43.530;-5.652;2023-02-01T05:00:57;102970.81;;;7.92
69415;BMP280;56608;43.530;-5.652;2023-02-01T05:01:59;102971.66;;;7.96
69415;BMP280;56608;43.530;-5.652;2023-02-01T05:03:00;102964.78;;;7.95
69415;BMP280;56608;43.530;-5.652;2023-02-01T05:04:02;102970.53;;;7.97
69415;BMP280;56608;43.530;-5.652;2023-02-01T05:05:03;102967.03;;;7.93
69415;BMP280;56608;43.530;-5.652;2023-02-01T05:06:05;102960.62;;;7.97
69415;BMP280;56608;43.530;-5.652;2023-02-01T05:07:06;102967.09;;;7.96
69415;BMP280;56608;43.530;-5.652;2023-02-01T05:08:08;102961.38;;;7.98
69415;BMP280;56608;43.530;-5.652;2023-02-01T05:09:09;102970.22;;;8.02
69415;BMP280;56608;43.530;-5.652;2023-02-01T05:10:11;102965.59;;;7.99
69415;BMP280;56608;43.530;-5.652;2023-02-01T05:11:11;102965.91;;;7.94
69415;BMP280;56608;43.530;-5.652;2023-02-01T05:12:31;102961.66;;;7.93
69415;BMP280;56608;43.530;-5.652;2023-02-01T05:13:52;102964.84;;;7.98
69415;BMP280;56608;43.530;-5.652;2023-02-01T05:14:53;102963.31;;;8.01
69415;BMP280;56608;43.530;-5.652;2023-02-01T05:15:54;102963.31;;;8.01
69415;BMP280;56608;43.530;-5.652;2023-02-01T05:16:55;102968.28;;;7.99
69415;BMP280;56608;43.530;-5.652;2023-02-01T05:17:57;102973.66;;;7.99
69415;BMP280;56608;43.530;-5.652;2023-02-01T05:18:58;102966.00;;;8.01
69415;BMP280;56608;43.530;-5.652;2023-02-01T05:20:00;102967.97;;;8.04
69415;BMP280;56608;43.530;-5.652;2023-02-01T05:21:01;102968.75;;;8.04
69415;BMP280;56608;43.530;-5.652;2023-02-01T05:22:02;102968.63;;;7.97
69415;BMP280;56608;43.530;-5.652;2023-02-01T05:23:04;102964.34;;;7.93
69415;BMP280;56608;43.530;-5.652;2023-02-01T05:24:08;102971.66;;;7.96
69415;BMP280;56608;43.530;-5.652;2023-02-01T05:25:14;102962.78;;;7.92
69415;BMP280;56608;43.530;-5.652;2023-02-01T05:26:15;102968.28;;;7.99
69415;BMP280;56608;43.530;-5.652;2023-02-01T05:27:16;102972.03;;;7.94
69415;BMP280;56608;43.530;-5.652;2023-02-01T05:28:18;102964.78;;;7.95
69415;BMP280;56608;43.530;-5.652;2023-02-01T05:29:19;102964.06;;;7.98
69415;BMP280;56608;43.530;-5.652;2023-02-01T05:30:20;102966.31;;;7.96
69415;BMP280;56608;43.530;-5.652;2023-02-01T05:31:21;102965.81;;;7.90
69415;BMP280;56608;43.530;-5.652;2023-02-01T05:32:23;102963.53;;;7.89
69415;BMP280;56608;43.530;-5.652;2023-02-01T05:33:24;102964.66;;;7.87
69415;BMP280;56608;43.530;-5.652;2023-02-01T05:34:26;102963.09;;;7.86
69415;BMP280;56608;43.530;-5.652;2023-02-01T05:35:27;102967.72;;;7.90
69415;BMP280;56608;43.530;-5.652;2023-02-01T05:36:27;102962.78;;;7.92
69415;BMP280;56608;43.530;-5.652;2023-02-01T05:37:29;102965.91;;;7.94
69415;BMP280;56608;43.530;-5.652;2023-02-01T05:38:31;102965.91;;;7.94
69415;BMP280;56608;43.530;-5.652;2023-02-01T05:39:33;102961.56;;;7.85
69415;BMP280;56608;43.530;-5.652;2023-02-01T05:40:34;102958.56;;;7.91
69415;BMP280;56608;43.530;-5.652;2023-02-01T05:41:36;102974.00;;;7.97
69415;BMP280;56608;43.530;-5.652;2023-02-01T05:42:37;102970.81;;;7.92
69415;BMP280;56608;43.530;-5.652;2023-02-01T05:43:39;102971.66;;;7.96
69415;BMP280;56608;43.530;-5.652;2023-02-01T05:44:40;102966.00;;;8.01
69415;BMP280;56608;43.530;-5.652;2023-02-01T05:45:42;102972.66;;;8.07
69415;BMP280;56608;43.530;-5.652;2023-02-01T05:46:43;102970.50;;;8.16
69415;BMP280;56608;43.530;-5.652;2023-02-01T05:47:44;102975.94;;;8.23
69415;BMP280;56608;43.530;-5.652;2023-02-01T05:48:45;102986.72;;;8.27
69415;BMP280;56608;43.530;-5.652;2023-02-01T05:49:47;102988.28;;;8.28
69415;BMP280;56608;43.530;-5.652;2023-02-01T05:50:48;102983.63;;;8.25
69415;BMP280;56608;43.530;-5.652;2023-02-01T05:51:50;102976.72;;;8.23
69415;BMP280;56608;43.530;-5.652;2023-02-01T05:52:51;102977.50;;;8.24
69415;BMP280;56608;43.530;-5.652;2023-02-01T05:53:52;102979.81;;;8.26
69415;BMP280;56608;43.530;-5.652;2023-02-01T05:54:54;102976.38;;;8.25
69415;BMP280;56608;43.530;-5.652;2023-02-01T05:55:55;102975.66;;;8.28
69415;BMP280;56608;43.530;-5.652;2023-02-01T05:56:56;102979.06;;;8.25
69415;BMP280;56608;43.530;-5.652;2023-02-01T05:57:58;102983.69;;;8.28
69415;BMP280;56608;43.530;-5.652;2023-02-01T05:58:59;102976.78;;;8.27
69415;BMP280;56608;43.530;-5.652;2023-02-01T06:00:01;102972.50;;;8.22
69415;BMP280;56608;43.530;-5.652;2023-02-01T06:01:03;102982.44;;;8.22
69415;BMP280;56608;43.530;-5.652;2023-02-01T06:02:05;102984.56;;;8.09
69415;BMP280;56608;43.530;-5.652;2023-02-01T06:03:07;102977.34;;;8.13
69415;BMP280;56608;43.530;-5.652;2023-02-01T06:04:09;102976.56;;;8.13
69415;BMP280;56608;43.530;-5.652;2023-02-01T06:05:09;102981.16;;;8.12
69415;BMP280;56608;43.530;-5.652;2023-02-01T06:06:11;102984.19;;;8.11
69415;BMP280;56608;43.530;-5.652;2023-02-01T06:07:12;102973.69;;;8.02
69415;BMP280;56608;43.530;-5.652;2023-02-01T06:08:14;102980.13;;;7.98
69415;BMP280;56608;43.530;-5.652;2023-02-01T06:09:15;102979.78;;;7.99
69415;BMP280;56608;43.530;-5.652;2023-02-01T06:10:17;102978.66;;;8.00
69415;BMP280;56608;43.530;-5.652;2023-02-01T06:11:17;102984.62;;;7.94
69415;BMP280;56608;43.530;-5.652;2023-02-01T06:12:19;102982.63;;;7.87
69415;BMP280;56608;43.530;-5.652;2023-02-01T06:13:21;102980.66;;;7.84
69415;BMP280;56608;43.530;-5.652;2023-02-01T06:14:22;102978.75;;;7.84
69415;BMP280;56608;43.530;-5.652;2023-02-01T06:15:25;102979.94;;;7.87
69415;BMP280;56608;43.530;-5.652;2023-02-01T06:16:26;102981.44;;;7.84
69415;BMP280;56608;43.530;-5.652;2023-02-01T06:17:28;102979.22;;;7.90
69415;BMP280;56608;43.530;-5.652;2023-02-01T06:18:29;102980.72;;;7.87
69415;BMP280;56608;43.530;-5.652;2023-02-01T06:19:31;102988.44;;;7.93
69415;BMP280;56608;43.530;-5.652;2023-02-01T06:20:33;102987.62;;;7.89
69415;BMP280;56608;43.530;-5.652;2023-02-01T06:21:36;102983.03;;;7.89
69415;BMP280;56608;43.530;-5.652;2023-02-01T06:22:38;102989.88;;;7.86
69415;BMP280;56608;43.530;-5.652;2023-02-01T06:23:39;102984.94;;;7.89
69415;BMP280;56608;43.530;-5.652;2023-02-01T06:24:41;102988.44;;;7.93
69415;BMP280;56608;43.530;-5.652;2023-02-01T06:25:42;102987.38;;;7.97
69415;BMP280;56608;43.530;-5.652;2023-02-01T06:26:43;102983.22;;;8.00
69415;BMP280;56608;43.530;-5.652;2023-02-01T06:27:44;102980.47;;;7.96
69415;BMP280;56608;43.530;-5.652;2023-02-01T06:28:46;102981.78;;;8.06
69415;BMP280;56608;43.530;-5.652;2023-02-01T06:29:46;102988.25;;;8.05
69415;BMP280;56608;43.530;-5.652;2023-02-01T06:30:48;102990.94;;;8.05
69415;BMP280;56608;43.530;-5.652;2023-02-01T06:31:50;102981.72;;;8.02
69415;BMP280;56608;43.530;-5.652;2023-02-01T06:32:51;102984.34;;;7.99
69415;BMP280;56608;43.530;-5.652;2023-02-01T06:33:56;102991.66;;;8.02
69415;BMP280;56608;43.530;-5.652;2023-02-01T06:34:57;102992.37;;;7.99
69415;BMP280;56608;43.530;-5.652;2023-02-01T06:36:00;102992.31;;;7.95